sensor_id;sensor_type;location;lat;lon;timestamp;temperature;humidity
2174;DHT22;1093;51.424;11.764;2023-05-23T00:02:04;19.30;1.40
2174;DHT22;1093;51.424;11.764;2023-05-23T00:04:32;19.20;1.40
2174;DHT22;1093;51.424;11.764;2023-05-23T00:07:01;19.20;1.40
2174;DHT22;1093;51.424;11.764;2023-05-23T00:09:27;19.20;1.40
2174;DHT22;1093;51.424;11.764;2023-05-23T00:11:54;19.20;1.40
2174;DHT22;1093;51.424;11.764;2023-05-23T00:14:21;19.20;1.40
2174;DHT22;1093;51.424;11.764;2023-05-23T00:16:49;19.10;1.40
2174;DHT22;1093;51.424;11.764;2023-05-23T00:19:16;19.10;1.40
2174;DHT22;1093;51.424;11.764;2023-05-23T00:21:44;19.10;1.40
2174;DHT22;1093;51.424;11.764;2023-05-23T00:24:12;19.20;1.40
2174;DHT22;1093;51.424;11.764;2023-05-23T00:26:43;19.10;1.40
2174;DHT22;1093;51.424;11.764;2023-05-23T00:29:09;19.20;1.40
2174;DHT22;1093;51.424;11.764;2023-05-23T00:31:40;19.20;1.40
2174;DHT22;1093;51.424;11.764;2023-05-23T00:34:08;19.10;1.40
2174;DHT22;1093;51.424;11.764;2023-05-23T00:36:37;19.10;1.40
2174;DHT22;1093;51.424;11.764;2023-05-23T00:39:06;19.10;1.40
2174;DHT22;1093;51.424;11.764;2023-05-23T00:41:32;19.10;1.40
2174;DHT22;1093;51.424;11.764;2023-05-23T00:44:00;19.10;1.40
2174;DHT22;1093;51.424;11.764;2023-05-23T00:46:27;19.10;1.40
2174;DHT22;1093;51.424;11.764;2023-05-23T00:48:54;19.10;1.40
2174;DHT22;1093;51.424;11.764;2023-05-23T00:51:22;19.00;1.40
2174;DHT22;1093;51.424;11.764;2023-05-23T00:53:50;19.00;1.40
2174;DHT22;1093;51.424;11.764;2023-05-23T00:56:17;19.00;1.40
2174;DHT22;1093;51.424;11.764;2023-05-23T00:58:44;18.90;1.40
2174;DHT22;1093;51.424;11.764;2023-05-23T01:01:12;19.00;1.40
2174;DHT22;1093;51.424;11.764;2023-05-23T01:03:40;18.90;1.40
2174;DHT22;1093;51.424;11.764;2023-05-23T01:06:10;18.90;1.40
2174;DHT22;1093;51.424;11.764;2023-05-23T01:08:38;18.90;1.40
2174;DHT22;1093;51.424;11.764;2023-05-23T01:11:13;18.90;1.40
2174;DHT22;1093;51.424;11.764;2023-05-23T01:13:52;18.80;1.40
2174;DHT22;1093;51.424;11.764;2023-05-23T01:16:32;18.80;1.40
2174;DHT22;1093;51.424;11.764;2023-05-23T01:19:10;18.80;1.40
2174;DHT22;1093;51.424;11.764;2023-05-23T01:21:45;18.80;1.40
2174;DHT22;1093;51.424;11.764;2023-05-23T01:24:35;18.70;1.40
2174;DHT22;1093;51.424;11.764;2023-05-23T01:27:08;18.70;1.40
2174;DHT22;1093;51.424;11.764;2023-05-23T01:29:44;18.70;1.40
2174;DHT22;1093;51.424;11.764;2023-05-23T01:32:12;18.70;1.40
2174;DHT22;1093;51.424;11.764;2023-05-23T01:34:40;18.70;1.40
2174;DHT22;1093;51.424;11.764;2023-05-23T01:37:09;18.60;1.40
2174;DHT22;1093;51.424;11.764;2023-05-23T01:39:40;18.60;1.40
2174;DHT22;1093;51.424;11.764;2023-05-23T01:42:07;18.60;1.40
2174;DHT22;1093;51.424;11.764;2023-05-23T01:44:35;18.50;1.40
2174;DHT22;1093;51.424;11.764;2023-05-23T01:47:06;18.50;1.40
2174;DHT22;1093;51.424;11.764;2023-05-23T01:49:34;18.50;1.40
2174;DHT22;1093;51.424;11.764;2023-05-23T01:52:02;18.50;1.40
2174;DHT22;1093;51.424;11.764;2023-05-23T01:54:30;18.40;1.40
2174;DHT22;1093;51.424;11.764;2023-05-23T01:56:57;18.40;1.40
2174;DHT22;1093;51.424;11.764;2023-05-23T01:59:25;18.30;1.40
2174;DHT22;1093;51.424;11.764;2023-05-23T02:01:52;18.30;1.40
2174;DHT22;1093;51.424;11.764;2023-05-23T02:04:20;18.30;1.40
2174;DHT22;1093;51.424;11.764;2023-05-23T02:06:47;18.20;1.40
2174;DHT22;1093;51.424;11.764;2023-05-23T02:09:14;18.20;1.40
2174;DHT22;1093;51.424;11.764;2023-05-23T02:11:41;18.20;1.40
2174;DHT22;1093;51.424;11.764;2023-05-23T02:14:11;18.10;1.40
2174;DHT22;1093;51.424;11.764;2023-05-23T02:16:38;18.10;1.40
2174;DHT22;1093;51.424;11.764;2023-05-23T02:19:05;18.10;1.40
2174;DHT22;1093;51.424;11.764;2023-05-23T02:21:33;18.00;1.40
2174;DHT22;1093;51.424;11.764;2023-05-23T02:23:59;18.00;1.40
2174;DHT22;1093;51.424;11.764;2023-05-23T02:26:26;18.00;1.40
2174;DHT22;1093;51.424;11.764;2023-05-23T02:28:52;18.00;1.40
2174;DHT22;1093;51.424;11.764;2023-05-23T02:31:19;17.90;1.40
2174;DHT22;1093;51.424;11.764;2023-05-23T02:33:46;17.90;1.40
2174;DHT22;1093;51.424;11.764;2023-05-23T02:36:13;17.90;1.40
2174;DHT22;1093;51.424;11.764;2023-05-23T02:38:41;17.90;1.40
2174;DHT22;1093;51.424;11.764;2023-05-23T02:41:09;17.90;1.40
2174;DHT22;1093;51.424;11.764;2023-05-23T02:43:35;17.80;1.40
2174;DHT22;1093;51.424;11.764;2023-05-23T02:46:02;17.80;1.40
2174;DHT22;1093;51.424;11.764;2023-05-23T02:48:29;17.80;1.40
2174;DHT22;1093;51.424;11.764;2023-05-23T02:50:56;17.80;1.40
2174;DHT22;1093;51.424;11.764;2023-05-23T02:53:22;17.70;1.40
2174;DHT22;1093;51.424;11.764;2023-05-23T02:55:50;17.70;1.40
2174;DHT22;1093;51.424;11.764;2023-05-23T02:58:17;17.70;1.40
2174;DHT22;1093;51.424;11.764;2023-05-23T03:00:45;17.60;1.40
2174;DHT22;1093;51.424;11.764;2023-05-23T03:03:11;17.60;1.40
2174;DHT22;1093;51.424;11.764;2023-05-23T03:05:38;17.60;1.40
2174;DHT22;1093;51.424;11.764;2023-05-23T03:08:05;17.50;1.40
2174;DHT22;1093;51.424;11.764;2023-05-23T03:10:31;17.50;1.40
2174;DHT22;1093;51.424;11.764;2023-05-23T03:12:59;17.50;1.40
2174;DHT22;1093;51.424;11.764;2023-05-23T03:15:26;17.40;1.40
2174;DHT22;1093;51.424;11.764;2023-05-23T03:17:52;17.40;1.40
2174;DHT22;1093;51.424;11.764;2023-05-23T03:20:19;17.40;1.40
2174;DHT22;1093;51.424;11.764;2023-05-23T03:22:46;17.30;1.40
2174;DHT22;1093;51.424;11.764;2023-05-23T03:25:14;17.30;1.40
2174;DHT22;1093;51.424;11.764;2023-05-23T03:27:42;17.20;1.40
2174;DHT22;1093;51.424;11.764;2023-05-23T03:30:11;17.20;1.40
2174;DHT22;1093;51.424;11.764;2023-05-23T03:32:38;17.20;1.40
2174;DHT22;1093;51.424;11.764;2023-05-23T03:35:06;17.10;1.40
2174;DHT22;1093;51.424;11.764;2023-05-23T03:37:33;17.10;1.40
2174;DHT22;1093;51.424;11.764;2023-05-23T03:39:59;17.00;1.40
2174;DHT22;1093;51.424;11.764;2023-05-23T03:42:27;17.00;1.40
2174;DHT22;1093;51.424;11.764;2023-05-23T03:44:54;17.10;1.40
2174;DHT22;1093;51.424;11.764;2023-05-23T03:47:22;17.00;1.40
2174;DHT22;1093;51.424;11.764;2023-05-23T03:49:49;17.00;1.40
2174;DHT22;1093;51.424;11.764;2023-05-23T03:52:16;16.90;1.40
2174;DHT22;1093;51.424;11.764;2023-05-23T03:54:43;16.90;1.40
2174;DHT22;1093;51.424;11.764;2023-05-23T03:57:10;16.90;1.40
2174;DHT22;1093;51.424;11.764;2023-05-23T03:59:37;16.90;1.40
2174;DHT22;1093;51.424;11.764;2023-05-23T04:02:04;16.90;1.40
2174;DHT22;1093;51.424;11.764;2023-05-23T04:04:32;16.90;1.40
2174;DHT22;1093;51.424;11.764;2023-05-23T04:06:59;16.90;1.40
2174;DHT22;1093;51.424;11.764;2023-05-23T04:09:26;16.90;1.40
2174;DHT22;1093;51.424;11.764;2023-05-23T04:11:53;16.90;1.40
2174;DHT22;1093;51.424;11.764;2023-05-23T04:14:20;16.90;1.40
2174;DHT22;1093;51.424;11.764;2023-05-23T04:16:47;16.90;1.40
2174;DHT22;1093;51.424;11.764;2023-05-23T04:19:13;16.90;1.40
2174;DHT22;1093;51.424;11.764;2023-05-23T04:21:42;16.90;1.40
2174;DHT22;1093;51.424;11.764;2023-05-23T04:24:09;16.90;1.40
2174;DHT22;1093;51.424;11.764;2023-05-23T04:26:36;16.90;1.40
2174;DHT22;1093;51.424;11.764;2023-05-23T04:29:03;16.90;1.40
2174;DHT22;1093;51.424;11.764;2023-05-23T04:31:30;16.90;1.40
2174;DHT22;1093;51.424;11.764;2023-05-23T04:33:58;17.00;1.40
2174;DHT22;1093;51.424;11.764;2023-05-23T04:36:25;17.00;1.40
2174;DHT22;1093;51.424;11.764;2023-05-23T04:38:53;17.00;1.40
2174;DHT22;1093;51.424;11.764;2023-05-23T04:41:20;17.00;1.40
2174;DHT22;1093;51.424;11.764;2023-05-23T04:43:47;17.00;1.40
2174;DHT22;1093;51.424;11.764;2023-05-23T04:46:19;17.00;1.40
2174;DHT22;1093;51.424;11.764;2023-05-23T04:48:50;17.10;1.40
2174;DHT22;1093;51.424;11.764;2023-05-23T04:51:17;17.10;1.40
2174;DHT22;1093;51.424;11.764;2023-05-23T04:53:46;17.20;1.40
2174;DHT22;1093;51.424;11.764;2023-05-23T04:56:14;17.30;1.40
2174;DHT22;1093;51.424;11.764;2023-05-23T04:58:41;17.40;1.40
2174;DHT22;1093;51.424;11.764;2023-05-23T05:01:09;17.40;1.40
2174;DHT22;1093;51.424;11.764;2023-05-23T05:03:36;17.50;1.40
2174;DHT22;1093;51.424;11.764;2023-05-23T05:06:03;17.40;1.40
2174;DHT22;1093;51.424;11.764;2023-05-23T05:08:30;17.40;1.40
2174;DHT22;1093;51.424;11.764;2023-05-23T05:10:57;17.50;1.40
2174;DHT22;1093;51.424;11.764;2023-05-23T05:13:25;17.60;1.40
2174;DHT22;1093;51.424;11.764;2023-05-23T05:15:52;17.50;1.40
2174;DHT22;1093;51.424;11.764;2023-05-23T05:18:18;17.50;1.40
2174;DHT22;1093;51.424;11.764;2023-05-23T05:20:45;17.60;1.40
2174;DHT22;1093;51.424;11.764;2023-05-23T05:23:12;17.60;1.40
2174;DHT22;1093;51.424;11.764;2023-05-23T05:25:39;17.60;1.40
2174;DHT22;1093;51.424;11.764;2023-05-23T05:28:06;17.70;1.40
2174;DHT22;1093;51.424;11.764;2023-05-23T05:30:34;17.70;1.40
2174;DHT22;1093;51.424;11.764;2023-05-23T05:33:03;17.70;1.40
2174;DHT22;1093;51.424;11.764;2023-05-23T05:35:30;17.70;1.40
2174;DHT22;1093;51.424;11.764;2023-05-23T05:37:57;17.70;1.40
2174;DHT22;1093;51.424;11.764;2023-05-23T05:40:23;17.80;1.40
2174;DHT22;1093;51.424;11.764;2023-05-23T05:42:50;17.80;1.40
2174;DHT22;1093;51.424;11.764;2023-05-23T05:45:17;17.80;1.40
2174;DHT22;1093;51.424;11.764;2023-05-23T05:47:45;17.80;1.40
2174;DHT22;1093;51.424;11.764;2023-05-23T05:50:12;17.80;1.40
2174;DHT22;1093;51.424;11.764;2023-05-23T05:52:39;17.80;1.40
2174;DHT22;1093;51.424;11.764;2023-05-23T05:55:07;17.90;1.40
2174;DHT22;1093;51.424;11.764;2023-05-23T05:57:35;18.00;1.40
2174;DHT22;1093;51.424;11.764;2023-05-23T06:00:04;17.90;1.40
2174;DHT22;1093;51.424;11.764;2023-05-23T06:02:38;17.90;1.40
2174;DHT22;1093;51.424;11.764;2023-05-23T06:05:07;17.90;1.40
2174;DHT22;1093;51.424;11.764;2023-05-23T06:07:36;17.90;1.40
2174;DHT22;1093;51.424;11.764;2023-05-23T06:10:05;17.90;1.40
2174;DHT22;1093;51.424;11.764;2023-05-23T06:12:32;17.80;1.40
2174;DHT22;1093;51.424;11.764;2023-05-23T06:14:58;17.80;1.40
2174;DHT22;1093;51.424;11.764;2023-05-23T06:17:25;17.70;1.40
2174;DHT22;1093;51.424;11.764;2023-05-23T06:19:51;17.70;1.40
2174;DHT22;1093;51.424;11.764;2023-05-23T06:22:19;17.60;1.40
2174;DHT22;1093;51.424;11.764;2023-05-23T06:24:46;17.60;1.40
2174;DHT22;1093;51.424;11.764;2023-05-23T06:27:13;17.50;1.40
2174;DHT22;1093;51.424;11.764;2023-05-23T06:29:40;17.60;1.40
2174;DHT22;1093;51.424;11.764;2023-05-23T06:32:06;17.50;1.40
2174;DHT22;1093;51.424;11.764;2023-05-23T06:34:33;17.50;1.40
2174;DHT22;1093;51.424;11.764;2023-05-23T06:37:00;17.50;1.40
2174;DHT22;1093;51.424;11.764;2023-05-23T06:39:28;17.50;1.40
2174;DHT22;1093;51.424;11.764;2023-05-23T06:41:54;17.40;1.40
2174;DHT22;1093;51.424;11.764;2023-05-23T06:44:21;17.40;1.40
2174;DHT22;1093;51.424;11.764;2023-05-23T06:46:48;17.40;1.40
2174;DHT22;1093;51.424;11.764;2023-05-23T06:49:15;17.40;1.40
2174;DHT22;1093;51.424;11.764;2023-05-23T06:51:41;17.40;1.40
2174;DHT22;1093;51.424;11.764;2023-05-23T06:54:09;17.50;1.40
2174;DHT22;1093;51.424;11.764;2023-05-23T06:56:37;17.40;1.40
2174;DHT22;1093;51.424;11.764;2023-05-23T06:59:04;17.50;1.40
2174;DHT22;1093;51.424;11.764;2023-05-23T07:01:30;17.50;1.40
2174;DHT22;1093;51.424;11.764;2023-05-23T07:03:57;17.50;1.40
2174;DHT22;1093;51.424;11.764;2023-05-23T07:06:24;17.50;1.40
2174;DHT22;1093;51.424;11.764;2023-05-23T07:08:52;17.50;1.40
2174;DHT22;1093;51.424;11.764;2023-05-23T07:11:19;17.50;1.40
2174;DHT22;1093;51.424;11.764;2023-05-23T07:13:47;17.50;1.40
2174;DHT22;1093;51.424;11.764;2023-05-23T07:16:14;17.50;1.40
2174;DHT22;1093;51.424;11.764;2023-05-23T07:18:41;17.50;1.40
2174;DHT22;1093;51.424;11.764;2023-05-23T07:21:08;17.50;1.40
2174;DHT22;1093;51.424;11.764;2023-05-23T07:23:35;17.50;1.40
2174;DHT22;1093;51.424;11.764;2023-05-23T07:26:01;17.50;1.40
2174;DHT22;1093;51.424;11.764;2023-05-23T07:28:29;17.60;1.40
2174;DHT22;1093;51.424;11.764;2023-05-23T07:30:57;17.60;1.40
2174;DHT22;1093;51.424;11.764;2023-05-23T07:33:24;17.60;1.40
2174;DHT22;1093;51.424;11.764;2023-05-23T07:35:50;17.60;1.40
2174;DHT22;1093;51.424;11.764;2023-05-23T07:38:17;17.70;1.40
2174;DHT22;1093;51.424;11.764;2023-05-23T07:40:44;17.70;1.40
2174;DHT22;1093;51.424;11.764;2023-05-23T07:43:10;17.70;1.40
2174;DHT22;1093;51.424;11.764;2023-05-23T07:45:37;17.80;1.40
2174;DHT22;1093;51.424;11.764;2023-05-23T07:48:05;17.80;1.40
2174;DHT22;1093;51.424;11.764;2023-05-23T07:50:32;17.80;1.40
2174;DHT22;1093;51.424;11.764;2023-05-23T07:52:58;17.80;1.40
2174;DHT22;1093;51.424;11.764;2023-05-23T07:55:25;17.90;1.40
2174;DHT22;1093;51.424;11.764;2023-05-23T07:57:52;18.00;1.40
2174;DHT22;1093;51.424;11.764;2023-05-23T08:00:19;18.00;1.40
2174;DHT22;1093;51.424;11.764;2023-05-23T08:02:46;18.10;1.40
2174;DHT22;1093;51.424;11.764;2023-05-23T08:05:14;18.10;1.40
2174;DHT22;1093;51.424;11.764;2023-05-23T08:07:41;18.30;1.40
2174;DHT22;1093;51.424;11.764;2023-05-23T08:10:08;18.30;1.40
2174;DHT22;1093;51.424;11.764;2023-05-23T08:12:35;18.40;1.40
2174;DHT22;1093;51.424;11.764;2023-05-23T08:15:02;18.50;1.40
2174;DHT22;1093;51.424;11.764;2023-05-23T08:17:29;18.60;1.40
2174;DHT22;1093;51.424;11.764;2023-05-23T08:19:55;18.70;1.40
2174;DHT22;1093;51.424;11.764;2023-05-23T08:22:24;18.80;1.40
2174;DHT22;1093;51.424;11.764;2023-05-23T08:24:51;18.90;1.40
2174;DHT22;1093;51.424;11.764;2023-05-23T08:27:17;19.10;1.40
2174;DHT22;1093;51.424;11.764;2023-05-23T08:29:44;19.30;1.40
2174;DHT22;1093;51.424;11.764;2023-05-23T08:32:11;19.50;1.40
2174;DHT22;1093;51.424;11.764;2023-05-23T08:34:39;19.60;1.40
2174;DHT22;1093;51.424;11.764;2023-05-23T08:37:06;19.80;1.40
2174;DHT22;1093;51.424;11.764;2023-05-23T08:39:34;20.00;1.40
2174;DHT22;1093;51.424;11.764;2023-05-23T08:42:01;20.20;1.40
2174;DHT22;1093;51.424;11.764;2023-05-23T08:44:27;20.30;1.40
2174;DHT22;1093;51.424;11.764;2023-05-23T08:46:54;20.50;1.40
2174;DHT22;1093;51.424;11.764;2023-05-23T08:49:22;20.60;1.40
2174;DHT22;1093;51.424;11.764;2023-05-23T08:51:53;20.70;1.40
2174;DHT22;1093;51.424;11.764;2023-05-23T08:54:23;20.80;1.40
2174;DHT22;1093;51.424;11.764;2023-05-23T08:56:52;20.90;1.40
2174;DHT22;1093;51.424;11.764;2023-05-23T08:59:20;21.00;1.40
2174;DHT22;1093;51.424;11.764;2023-05-23T09:01:49;21.10;1.40
2174;DHT22;1093;51.424;11.764;2023-05-23T09:04:17;21.20;1.40
2174;DHT22;1093;51.424;11.764;2023-05-23T09:06:44;21.20;1.40
2174;DHT22;1093;51.424;11.764;2023-05-23T09:09:10;21.20;1.40
2174;DHT22;1093;51.424;11.764;2023-05-23T09:11:37;21.20;1.40
2174;DHT22;1093;51.424;11.764;2023-05-23T09:14:06;21.20;1.40
2174;DHT22;1093;51.424;11.764;2023-05-23T09:16:35;21.20;1.40
2174;DHT22;1093;51.424;11.764;2023-05-23T09:19:09;21.20;1.40
2174;DHT22;1093;51.424;11.764;2023-05-23T09:21:36;21.10;1.40
2174;DHT22;1093;51.424;11.764;2023-05-23T09:24:07;21.20;1.40
2174;DHT22;1093;51.424;11.764;2023-05-23T09:26:34;21.30;1.40
2174;DHT22;1093;51.424;11.764;2023-05-23T09:29:05;21.20;1.40
2174;DHT22;1093;51.424;11.764;2023-05-23T09:31:33;21.10;1.40
2174;DHT22;1093;51.424;11.764;2023-05-23T09:34:00;21.10;1.40
2174;DHT22;1093;51.424;11.764;2023-05-23T09:36:27;20.90;1.40
2174;DHT22;1093;51.424;11.764;2023-05-23T09:38:55;20.80;1.40
2174;DHT22;1093;51.424;11.764;2023-05-23T09:41:22;20.80;1.40
2174;DHT22;1093;51.424;11.764;2023-05-23T09:43:49;20.70;1.40
2174;DHT22;1093;51.424;11.764;2023-05-23T09:46:19;20.60;1.40
2174;DHT22;1093;51.424;11.764;2023-05-23T09:48:46;20.60;1.40
2174;DHT22;1093;51.424;11.764;2023-05-23T09:51:18;20.50;1.40
2174;DHT22;1093;51.424;11.764;2023-05-23T09:53:45;20.50;1.40
2174;DHT22;1093;51.424;11.764;2023-05-23T09:56:12;20.50;1.40
2174;DHT22;1093;51.424;11.764;2023-05-23T09:58:45;20.40;1.40
2174;DHT22;1093;51.424;11.764;2023-05-23T10:01:12;20.30;1.40
2174;DHT22;1093;51.424;11.764;2023-05-23T10:03:44;20.20;1.40
2174;DHT22;1093;51.424;11.764;2023-05-23T10:06:15;20.20;1.40
2174;DHT22;1093;51.424;11.764;2023-05-23T10:08:44;20.00;1.40
2174;DHT22;1093;51.424;11.764;2023-05-23T10:14:15;19.80;1.40
2174;DHT22;1093;51.424;11.764;2023-05-23T10:16:52;19.80;1.40
2174;DHT22;1093;51.424;11.764;2023-05-23T10:19:24;19.70;1.40
2174;DHT22;1093;51.424;11.764;2023-05-23T10:21:57;19.60;1.40
2174;DHT22;1093;51.424;11.764;2023-05-23T10:24:25;19.50;1.40
2174;DHT22;1093;51.424;11.764;2023-05-23T10:26:52;19.50;1.40
2174;DHT22;1093;51.424;11.764;2023-05-23T10:29:20;19.40;1.40
2174;DHT22;1093;51.424;11.764;2023-05-23T10:31:47;19.30;1.40
2174;DHT22;1093;51.424;11.764;2023-05-23T10:34:22;19.30;1.40
2174;DHT22;1093;51.424;11.764;2023-05-23T10:37:00;19.10;1.40
2174;DHT22;1093;51.424;11.764;2023-05-23T10:39:43;19.10;1.40
2174;DHT22;1093;51.424;11.764;2023-05-23T10:42:14;19.00;1.40
2174;DHT22;1093;51.424;11.764;2023-05-23T10:44:42;19.00;1.40
2174;DHT22;1093;51.424;11.764;2023-05-23T10:47:09;19.00;1.40
2174;DHT22;1093;51.424;11.764;2023-05-23T10:49:39;19.00;1.40
2174;DHT22;1093;51.424;11.764;2023-05-23T10:52:08;19.00;1.40
2174;DHT22;1093;51.424;11.764;2023-05-23T10:54:35;18.90;1.40
2174;DHT22;1093;51.424;11.764;2023-05-23T10:57:02;18.90;1.40
2174;DHT22;1093;51.424;11.764;2023-05-23T10:59:29;18.90;1.40
2174;DHT22;1093;51.424;11.764;2023-05-23T11:01:57;18.80;1.40
2174;DHT22;1093;51.424;11.764;2023-05-23T11:04:25;18.80;1.40
2174;DHT22;1093;51.424;11.764;2023-05-23T11:06:55;18.70;1.40
2174;DHT22;1093;51.424;11.764;2023-05-23T11:09:22;18.60;1.40
2174;DHT22;1093;51.424;11.764;2023-05-23T11:12:00;18.60;1.40
2174;DHT22;1093;51.424;11.764;2023-05-23T11:14:51;18.50;1.40
2174;DHT22;1093;51.424;11.764;2023-05-23T11:17:30;18.40;1.40
2174;DHT22;1093;51.424;11.764;2023-05-23T11:19:59;18.40;1.40
2174;DHT22;1093;51.424;11.764;2023-05-23T11:22:30;18.30;1.40
2174;DHT22;1093;51.424;11.764;2023-05-23T11:24:59;18.20;1.40
2174;DHT22;1093;51.424;11.764;2023-05-23T11:27:27;18.00;1.40
2174;DHT22;1093;51.424;11.764;2023-05-23T11:30:00;18.00;1.40
2174;DHT22;1093;51.424;11.764;2023-05-23T11:32:28;17.90;1.40
2174;DHT22;1093;51.424;11.764;2023-05-23T11:34:58;17.80;1.40
2174;DHT22;1093;51.424;11.764;2023-05-23T11:37:26;17.70;1.40
2174;DHT22;1093;51.424;11.764;2023-05-23T11:39:54;17.70;1.40
2174;DHT22;1093;51.424;11.764;2023-05-23T11:42:21;17.70;1.40
2174;DHT22;1093;51.424;11.764;2023-05-23T11:44:48;17.60;1.40
2174;DHT22;1093;51.424;11.764;2023-05-23T11:47:15;17.60;1.40
2174;DHT22;1093;51.424;11.764;2023-05-23T11:49:44;17.60;1.40
2174;DHT22;1093;51.424;11.764;2023-05-23T11:52:11;17.60;1.40
2174;DHT22;1093;51.424;11.764;2023-05-23T11:54:39;17.60;1.40
2174;DHT22;1093;51.424;11.764;2023-05-23T11:57:08;17.60;1.40
2174;DHT22;1093;51.424;11.764;2023-05-23T11:59:35;17.50;1.40
2174;DHT22;1093;51.424;11.764;2023-05-23T12:02:04;17.50;1.40
2174;DHT22;1093;51.424;11.764;2023-05-23T12:04:30;17.50;1.40
2174;DHT22;1093;51.424;11.764;2023-05-23T12:07:03;17.40;1.40
2174;DHT22;1093;51.424;11.764;2023-05-23T12:09:30;17.40;1.40
2174;DHT22;1093;51.424;11.764;2023-05-23T12:11:57;17.30;1.40
2174;DHT22;1093;51.424;11.764;2023-05-23T12:14:28;17.30;1.40
2174;DHT22;1093;51.424;11.764;2023-05-23T12:16:55;17.20;1.40
2174;DHT22;1093;51.424;11.764;2023-05-23T12:19:22;17.20;1.40
2174;DHT22;1093;51.424;11.764;2023-05-23T12:21:49;17.10;1.40
2174;DHT22;1093;51.424;11.764;2023-05-23T12:24:17;17.10;1.40
2174;DHT22;1093;51.424;11.764;2023-05-23T12:26:50;17.10;1.40
2174;DHT22;1093;51.424;11.764;2023-05-23T12:29:19;17.10;1.40
2174;DHT22;1093;51.424;11.764;2023-05-23T12:31:51;17.10;1.40
2174;DHT22;1093;51.424;11.764;2023-05-23T12:34:19;17.00;1.40
2174;DHT22;1093;51.424;11.764;2023-05-23T12:36:46;17.00;1.40
2174;DHT22;1093;51.424;11.764;2023-05-23T12:39:14;17.00;1.40
2174;DHT22;1093;51.424;11.764;2023-05-23T12:41:42;16.90;1.40
2174;DHT22;1093;51.424;11.764;2023-05-23T12:44:10;17.00;1.40
2174;DHT22;1093;51.424;11.764;2023-05-23T12:46:38;17.00;1.40
2174;DHT22;1093;51.424;11.764;2023-05-23T12:49:06;17.00;1.40
2174;DHT22;1093;51.424;11.764;2023-05-23T12:51:33;17.00;1.40
2174;DHT22;1093;51.424;11.764;2023-05-23T12:54:00;17.00;1.40
2174;DHT22;1093;51.424;11.764;2023-05-23T12:56:27;17.00;1.40
2174;DHT22;1093;51.424;11.764;2023-05-23T12:58:54;17.00;1.40
2174;DHT22;1093;51.424;11.764;2023-05-23T13:01:21;17.00;1.40
2174;DHT22;1093;51.424;11.764;2023-05-23T13:03:48;17.00;1.40
2174;DHT22;1093;51.424;11.764;2023-05-23T13:06:19;17.00;1.40
2174;DHT22;1093;51.424;11.764;2023-05-23T13:08:48;17.10;1.40
2174;DHT22;1093;51.424;11.764;2023-05-23T13:11:16;17.00;1.40
2174;DHT22;1093;51.424;11.764;2023-05-23T13:13:43;17.00;1.40
2174;DHT22;1093;51.424;11.764;2023-05-23T13:16:09;17.00;1.40
2174;DHT22;1093;51.424;11.764;2023-05-23T13:18:36;16.90;1.40
2174;DHT22;1093;51.424;11.764;2023-05-23T13:21:03;17.00;1.40
2174;DHT22;1093;51.424;11.764;2023-05-23T13:23:32;16.90;1.40
2174;DHT22;1093;51.424;11.764;2023-05-23T13:25:58;16.90;1.40
2174;DHT22;1093;51.424;11.764;2023-05-23T13:28:25;16.90;1.40
2174;DHT22;1093;51.424;11.764;2023-05-23T13:30:52;16.90;1.40
2174;DHT22;1093;51.424;11.764;2023-05-23T13:33:19;16.90;1.40
2174;DHT22;1093;51.424;11.764;2023-05-23T13:35:46;16.80;1.40
2174;DHT22;1093;51.424;11.764;2023-05-23T13:38:16;16.80;1.40
2174;DHT22;1093;51.424;11.764;2023-05-23T13:40:44;16.80;1.40
2174;DHT22;1093;51.424;11.764;2023-05-23T13:43:11;16.80;1.40
2174;DHT22;1093;51.424;11.764;2023-05-23T13:45:38;16.70;1.40
2174;DHT22;1093;51.424;11.764;2023-05-23T13:48:04;16.60;1.40
2174;DHT22;1093;51.424;11.764;2023-05-23T13:50:31;16.60;1.40
2174;DHT22;1093;51.424;11.764;2023-05-23T13:52:58;16.60;1.40
2174;DHT22;1093;51.424;11.764;2023-05-23T13:55:25;16.50;1.40
2174;DHT22;1093;51.424;11.764;2023-05-23T13:57:53;16.60;1.40
2174;DHT22;1093;51.424;11.764;2023-05-23T14:00:20;16.50;1.40
2174;DHT22;1093;51.424;11.764;2023-05-23T14:02:49;16.50;1.40
2174;DHT22;1093;51.424;11.764;2023-05-23T14:05:16;16.50;1.40
2174;DHT22;1093;51.424;11.764;2023-05-23T14:07:43;16.30;1.40
2174;DHT22;1093;51.424;11.764;2023-05-23T14:10:12;16.10;1.40
2174;DHT22;1093;51.424;11.764;2023-05-23T14:12:38;16.20;1.40
2174;DHT22;1093;51.424;11.764;2023-05-23T14:15:08;16.10;1.40
2174;DHT22;1093;51.424;11.764;2023-05-23T14:17:35;16.00;1.40
2174;DHT22;1093;51.424;11.764;2023-05-23T14:20:01;15.90;1.40
2174;DHT22;1093;51.424;11.764;2023-05-23T14:22:28;15.90;1.40
2174;DHT22;1093;51.424;11.764;2023-05-23T14:24:56;15.90;1.40
2174;DHT22;1093;51.424;11.764;2023-05-23T14:27:23;15.80;1.40
2174;DHT22;1093;51.424;11.764;2023-05-23T14:29:49;15.70;1.40
2174;DHT22;1093;51.424;11.764;2023-05-23T14:32:17;15.70;1.40
2174;DHT22;1093;51.424;11.764;2023-05-23T14:34:44;15.60;1.40
2174;DHT22;1093;51.424;11.764;2023-05-23T14:37:11;15.60;1.40
2174;DHT22;1093;51.424;11.764;2023-05-23T14:39:37;15.60;1.40
2174;DHT22;1093;51.424;11.764;2023-05-23T14:42:04;15.50;1.40
2174;DHT22;1093;51.424;11.764;2023-05-23T14:44:31;15.50;1.40
2174;DHT22;1093;51.424;11.764;2023-05-23T14:46:58;15.50;1.40
2174;DHT22;1093;51.424;11.764;2023-05-23T14:49:26;15.40;1.40
2174;DHT22;1093;51.424;11.764;2023-05-23T14:51:54;15.40;1.40
2174;DHT22;1093;51.424;11.764;2023-05-23T14:54:20;15.30;1.40
2174;DHT22;1093;51.424;11.764;2023-05-23T14:56:47;15.20;1.40
2174;DHT22;1093;51.424;11.764;2023-05-23T14:59:15;15.10;1.40
2174;DHT22;1093;51.424;11.764;2023-05-23T15:01:42;15.00;1.40
2174;DHT22;1093;51.424;11.764;2023-05-23T15:04:08;15.00;1.40
2174;DHT22;1093;51.424;11.764;2023-05-23T15:06:37;15.00;1.40
2174;DHT22;1093;51.424;11.764;2023-05-23T15:09:04;15.00;1.40
2174;DHT22;1093;51.424;11.764;2023-05-23T15:11:31;14.90;1.40
2174;DHT22;1093;51.424;11.764;2023-05-23T15:13:59;14.90;1.40
2174;DHT22;1093;51.424;11.764;2023-05-23T15:16:25;14.90;1.40
2174;DHT22;1093;51.424;11.764;2023-05-23T15:18:56;14.90;1.40
2174;DHT22;1093;51.424;11.764;2023-05-23T15:21:23;14.80;1.40
2174;DHT22;1093;51.424;11.764;2023-05-23T15:23:52;14.70;1.40
2174;DHT22;1093;51.424;11.764;2023-05-23T15:26:18;14.70;1.40
2174;DHT22;1093;51.424;11.764;2023-05-23T15:28:45;14.70;1.40
2174;DHT22;1093;51.424;11.764;2023-05-23T15:31:12;14.70;1.40
2174;DHT22;1093;51.424;11.764;2023-05-23T15:33:39;14.60;1.40
2174;DHT22;1093;51.424;11.764;2023-05-23T15:36:06;14.70;1.40
2174;DHT22;1093;51.424;11.764;2023-05-23T15:38:33;14.70;1.40
2174;DHT22;1093;51.424;11.764;2023-05-23T15:41:01;14.60;1.40
2174;DHT22;1093;51.424;11.764;2023-05-23T15:43:29;14.60;1.40
2174;DHT22;1093;51.424;11.764;2023-05-23T15:45:57;14.70;1.40
2174;DHT22;1093;51.424;11.764;2023-05-23T15:48:23;14.70;1.40
2174;DHT22;1093;51.424;11.764;2023-05-23T15:50:50;14.60;1.40
2174;DHT22;1093;51.424;11.764;2023-05-23T15:53:17;14.70;1.40
2174;DHT22;1093;51.424;11.764;2023-05-23T15:55:43;14.70;1.40
2174;DHT22;1093;51.424;11.764;2023-05-23T15:58:12;14.70;1.40
2174;DHT22;1093;51.424;11.764;2023-05-23T16:00:38;14.70;1.40
2174;DHT22;1093;51.424;11.764;2023-05-23T16:03:05;14.60;1.40
2174;DHT22;1093;51.424;11.764;2023-05-23T16:05:31;14.60;1.40
2174;DHT22;1093;51.424;11.764;2023-05-23T16:07:58;14.60;1.40
2174;DHT22;1093;51.424;11.764;2023-05-23T16:10:25;14.60;1.40